sensor_id;sensor_type;location;lat;lon;timestamp;P1;durP1;ratioP1;P2;durP2;ratioP2
74650;SDS011;63169;46.042;14.592;2023-05-10T00:00:22;3.78;;;2.88;;
74650;SDS011;63169;46.042;14.592;2023-05-10T00:02:48;3.22;;;1.23;;
74650;SDS011;63169;46.042;14.592;2023-05-10T00:05:14;5.53;;;2.58;;
74650;SDS011;63169;46.042;14.592;2023-05-10T00:07:40;6.63;;;3.17;;
74650;SDS011;63169;46.042;14.592;2023-05-10T00:10:05;6.90;;;3.47;;
74650;SDS011;63169;46.042;14.592;2023-05-10T00:12:31;5.63;;;2.63;;
74650;SDS011;63169;46.042;14.592;2023-05-10T00:14:56;5.05;;;2.33;;
74650;SDS011;63169;46.042;14.592;2023-05-10T00:17:22;5.00;;;2.10;;
74650;SDS011;63169;46.042;14.592;2023-05-10T00:19:47;4.82;;;2.65;;
74650;SDS011;63169;46.042;14.592;2023-05-10T00:22:13;4.47;;;3.97;;
74650;SDS011;63169;46.042;14.592;2023-05-10T00:24:38;4.65;;;1.60;;
74650;SDS011;63169;46.042;14.592;2023-05-10T00:27:04;3.42;;;1.45;;
74650;SDS011;63169;46.042;14.592;2023-05-10T00:29:29;4.55;;;3.45;;
74650;SDS011;63169;46.042;14.592;2023-05-10T00:31:54;3.25;;;1.55;;
74650;SDS011;63169;46.042;14.592;2023-05-10T00:34:20;3.22;;;1.50;;
74650;SDS011;63169;46.042;14.592;2023-05-10T00:36:45;6.35;;;2.10;;
74650;SDS011;63169;46.042;14.592;2023-05-10T00:39:11;4.03;;;2.05;;
74650;SDS011;63169;46.042;14.592;2023-05-10T00:41:37;3.58;;;1.83;;
74650;SDS011;63169;46.042;14.592;2023-05-10T00:44:02;3.45;;;1.42;;
74650;SDS011;63169;46.042;14.592;2023-05-10T00:46:29;4.28;;;1.55;;
74650;SDS011;63169;46.042;14.592;2023-05-10T00:48:54;3.58;;;1.63;;
74650;SDS011;63169;46.042;14.592;2023-05-10T00:51:20;4.07;;;3.63;;
74650;SDS011;63169;46.042;14.592;2023-05-10T00:53:45;4.90;;;3.35;;
74650;SDS011;63169;46.042;14.592;2023-05-10T00:56:11;4.30;;;2.08;;
74650;SDS011;63169;46.042;14.592;2023-05-10T00:58:37;3.45;;;1.58;;
74650;SDS011;63169;46.042;14.592;2023-05-10T01:01:03;4.35;;;1.63;;
74650;SDS011;63169;46.042;14.592;2023-05-10T01:03:29;4.00;;;2.13;;
74650;SDS011;63169;46.042;14.592;2023-05-10T01:05:54;3.95;;;1.55;;
74650;SDS011;63169;46.042;14.592;2023-05-10T01:08:20;3.33;;;1.58;;
74650;SDS011;63169;46.042;14.592;2023-05-10T01:10:45;6.32;;;1.98;;
74650;SDS011;63169;46.042;14.592;2023-05-10T01:13:11;4.03;;;1.70;;
74650;SDS011;63169;46.042;14.592;2023-05-10T01:15:37;3.30;;;1.85;;
74650;SDS011;63169;46.042;14.592;2023-05-10T01:18:03;2.83;;;1.35;;
74650;SDS011;63169;46.042;14.592;2023-05-10T01:20:42;3.72;;;1.50;;
74650;SDS011;63169;46.042;14.592;2023-05-10T01:28:39;3.83;;;1.73;;
74650;SDS011;63169;46.042;14.592;2023-05-10T01:41:52;4.47;;;1.20;;
74650;SDS011;63169;46.042;14.592;2023-05-10T01:47:01;4.25;;;1.73;;
74650;SDS011;63169;46.042;14.592;2023-05-10T01:49:47;4.38;;;2.03;;
74650;SDS011;63169;46.042;14.592;2023-05-10T01:52:15;4.10;;;1.55;;
74650;SDS011;63169;46.042;14.592;2023-05-10T01:55:00;3.53;;;1.30;;
74650;SDS011;63169;46.042;14.592;2023-05-10T01:57:36;3.92;;;2.58;;
74650;SDS011;63169;46.042;14.592;2023-05-10T02:00:04;5.00;;;1.80;;
74650;SDS011;63169;46.042;14.592;2023-05-10T02:02:33;5.30;;;2.00;;
74650;SDS011;63169;46.042;14.592;2023-05-10T02:05:02;2.88;;;1.20;;
74650;SDS011;63169;46.042;14.592;2023-05-10T02:07:29;4.35;;;1.70;;
74650;SDS011;63169;46.042;14.592;2023-05-10T02:09:55;5.88;;;2.15;;
74650;SDS011;63169;46.042;14.592;2023-05-10T02:12:21;5.57;;;1.73;;
74650;SDS011;63169;46.042;14.592;2023-05-10T02:14:47;5.35;;;1.92;;
74650;SDS011;63169;46.042;14.592;2023-05-10T02:17:12;5.18;;;2.80;;
74650;SDS011;63169;46.042;14.592;2023-05-10T02:19:39;4.88;;;1.60;;
74650;SDS011;63169;46.042;14.592;2023-05-10T02:22:06;4.13;;;3.42;;
74650;SDS011;63169;46.042;14.592;2023-05-10T02:24:33;5.85;;;2.85;;
74650;SDS011;63169;46.042;14.592;2023-05-10T02:26:59;3.55;;;2.13;;
74650;SDS011;63169;46.042;14.592;2023-05-10T02:29:25;4.97;;;1.67;;
74650;SDS011;63169;46.042;14.592;2023-05-10T02:31:52;3.88;;;1.50;;
74650;SDS011;63169;46.042;14.592;2023-05-10T02:34:18;3.80;;;2.83;;
74650;SDS011;63169;46.042;14.592;2023-05-10T02:36:45;5.95;;;2.28;;
74650;SDS011;63169;46.042;14.592;2023-05-10T02:39:10;3.78;;;2.10;;
74650;SDS011;63169;46.042;14.592;2023-05-10T02:41:38;4.57;;;1.67;;
74650;SDS011;63169;46.042;14.592;2023-05-10T02:44:05;5.32;;;2.38;;
74650;SDS011;63169;46.042;14.592;2023-05-10T02:46:32;4.55;;;1.98;;
74650;SDS011;63169;46.042;14.592;2023-05-10T02:48:58;4.22;;;2.10;;
74650;SDS011;63169;46.042;14.592;2023-05-10T02:51:28;4.55;;;1.88;;
74650;SDS011;63169;46.042;14.592;2023-05-10T02:53:56;6.45;;;2.50;;
74650;SDS011;63169;46.042;14.592;2023-05-10T02:56:28;6.20;;;4.00;;
74650;SDS011;63169;46.042;14.592;2023-05-10T02:58:57;5.88;;;2.10;;
74650;SDS011;63169;46.042;14.592;2023-05-10T03:01:22;7.65;;;1.88;;
74650;SDS011;63169;46.042;14.592;2023-05-10T03:03:48;4.05;;;2.08;;
74650;SDS011;63169;46.042;14.592;2023-05-10T03:06:14;3.40;;;1.88;;
74650;SDS011;63169;46.042;14.592;2023-05-10T03:08:39;4.65;;;3.28;;
74650;SDS011;63169;46.042;14.592;2023-05-10T03:16:36;3.50;;;1.95;;
74650;SDS011;63169;46.042;14.592;2023-05-10T03:19:14;6.32;;;1.80;;
74650;SDS011;63169;46.042;14.592;2023-05-10T03:21:43;4.40;;;2.15;;
74650;SDS011;63169;46.042;14.592;2023-05-10T03:24:12;6.70;;;2.55;;
74650;SDS011;63169;46.042;14.592;2023-05-10T03:26:40;4.45;;;2.65;;
74650;SDS011;63169;46.042;14.592;2023-05-10T03:29:08;6.25;;;2.40;;
74650;SDS011;63169;46.042;14.592;2023-05-10T03:31:35;4.55;;;2.42;;
74650;SDS011;63169;46.042;14.592;2023-05-10T03:34:00;4.85;;;3.00;;
74650;SDS011;63169;46.042;14.592;2023-05-10T03:36:26;5.30;;;2.20;;
74650;SDS011;63169;46.042;14.592;2023-05-10T03:38:51;5.15;;;2.38;;
74650;SDS011;63169;46.042;14.592;2023-05-10T03:41:17;4.35;;;1.98;;
74650;SDS011;63169;46.042;14.592;2023-05-10T03:43:42;5.78;;;2.75;;
74650;SDS011;63169;46.042;14.592;2023-05-10T03:46:07;5.30;;;2.00;;
74650;SDS011;63169;46.042;14.592;2023-05-10T03:48:33;4.63;;;2.40;;
74650;SDS011;63169;46.042;14.592;2023-05-10T03:50:58;5.32;;;3.22;;
74650;SDS011;63169;46.042;14.592;2023-05-10T03:53:24;4.60;;;2.47;;
74650;SDS011;63169;46.042;14.592;2023-05-10T03:55:49;4.13;;;2.08;;
74650;SDS011;63169;46.042;14.592;2023-05-10T03:58:15;6.93;;;2.63;;
74650;SDS011;63169;46.042;14.592;2023-05-10T04:00:40;6.45;;;2.70;;
74650;SDS011;63169;46.042;14.592;2023-05-10T04:03:09;5.03;;;2.50;;
74650;SDS011;63169;46.042;14.592;2023-05-10T04:05:34;8.63;;;2.85;;
74650;SDS011;63169;46.042;14.592;2023-05-10T04:08:00;6.00;;;2.75;;
74650;SDS011;63169;46.042;14.592;2023-05-10T04:10:26;6.68;;;3.08;;
74650;SDS011;63169;46.042;14.592;2023-05-10T04:12:51;7.32;;;3.13;;
74650;SDS011;63169;46.042;14.592;2023-05-10T04:15:16;5.75;;;2.92;;
74650;SDS011;63169;46.042;14.592;2023-05-10T04:17:42;5.03;;;2.25;;
74650;SDS011;63169;46.042;14.592;2023-05-10T04:20:07;4.78;;;2.20;;
74650;SDS011;63169;46.042;14.592;2023-05-10T04:22:33;5.88;;;2.20;;
74650;SDS011;63169;46.042;14.592;2023-05-10T04:24:59;5.72;;;2.47;;
74650;SDS011;63169;46.042;14.592;2023-05-10T04:27:24;5.20;;;2.40;;
74650;SDS011;63169;46.042;14.592;2023-05-10T04:29:49;5.45;;;1.90;;
74650;SDS011;63169;46.042;14.592;2023-05-10T04:32:15;3.97;;;1.85;;
74650;SDS011;63169;46.042;14.592;2023-05-10T04:34:42;6.13;;;3.13;;
74650;SDS011;63169;46.042;14.592;2023-05-10T04:37:08;5.75;;;3.22;;
74650;SDS011;63169;46.042;14.592;2023-05-10T04:39:33;4.60;;;2.13;;
74650;SDS011;63169;46.042;14.592;2023-05-10T04:42:00;7.53;;;2.78;;
74650;SDS011;63169;46.042;14.592;2023-05-10T04:44:25;8.10;;;3.03;;
74650;SDS011;63169;46.042;14.592;2023-05-10T04:46:51;8.82;;;3.75;;
74650;SDS011;63169;46.042;14.592;2023-05-10T04:49:16;9.00;;;3.13;;
74650;SDS011;63169;46.042;14.592;2023-05-10T04:51:42;6.75;;;2.65;;
74650;SDS011;63169;46.042;14.592;2023-05-10T04:54:08;6.35;;;3.60;;
74650;SDS011;63169;46.042;14.592;2023-05-10T04:56:33;6.25;;;2.50;;
74650;SDS011;63169;46.042;14.592;2023-05-10T04:58:59;7.78;;;3.38;;
74650;SDS011;63169;46.042;14.592;2023-05-10T05:01:24;9.10;;;2.47;;
74650;SDS011;63169;46.042;14.592;2023-05-10T05:03:49;5.68;;;2.60;;
74650;SDS011;63169;46.042;14.592;2023-05-10T05:06:17;7.93;;;2.35;;
74650;SDS011;63169;46.042;14.592;2023-05-10T05:08:42;5.80;;;2.20;;
74650;SDS011;63169;46.042;14.592;2023-05-10T05:11:07;16.70;;;3.53;;
74650;SDS011;63169;46.042;14.592;2023-05-10T05:13:33;9.40;;;3.58;;
74650;SDS011;63169;46.042;14.592;2023-05-10T05:16:00;12.88;;;4.22;;
74650;SDS011;63169;46.042;14.592;2023-05-10T05:18:26;15.77;;;4.43;;
74650;SDS011;63169;46.042;14.592;2023-05-10T05:20:51;17.25;;;4.10;;
74650;SDS011;63169;46.042;14.592;2023-05-10T05:23:16;17.38;;;4.85;;
74650;SDS011;63169;46.042;14.592;2023-05-10T05:25:43;7.30;;;4.22;;
74650;SDS011;63169;46.042;14.592;2023-05-10T05:28:08;5.70;;;2.67;;
74650;SDS011;63169;46.042;14.592;2023-05-10T05:30:33;7.93;;;3.33;;
74650;SDS011;63169;46.042;14.592;2023-05-10T05:32:59;7.93;;;3.67;;
74650;SDS011;63169;46.042;14.592;2023-05-10T05:35:24;6.90;;;3.92;;
74650;SDS011;63169;46.042;14.592;2023-05-10T05:37:49;7.55;;;3.42;;
74650;SDS011;63169;46.042;14.592;2023-05-10T05:40:15;7.40;;;4.15;;
74650;SDS011;63169;46.042;14.592;2023-05-10T05:42:40;9.63;;;3.30;;
74650;SDS011;63169;46.042;14.592;2023-05-10T05:45:06;9.23;;;3.40;;
74650;SDS011;63169;46.042;14.592;2023-05-10T05:47:33;15.55;;;4.68;;
74650;SDS011;63169;46.042;14.592;2023-05-10T05:49:59;13.68;;;3.85;;
74650;SDS011;63169;46.042;14.592;2023-05-10T05:52:24;12.10;;;7.10;;
74650;SDS011;63169;46.042;14.592;2023-05-10T05:54:49;9.43;;;3.70;;
74650;SDS011;63169;46.042;14.592;2023-05-10T05:57:15;10.75;;;4.72;;
74650;SDS011;63169;46.042;14.592;2023-05-10T05:59:40;7.70;;;5.85;;
74650;SDS011;63169;46.042;14.592;2023-05-10T06:02:09;11.48;;;3.75;;
74650;SDS011;63169;46.042;14.592;2023-05-10T06:04:35;11.77;;;4.13;;
74650;SDS011;63169;46.042;14.592;2023-05-10T06:07:00;9.13;;;3.65;;
74650;SDS011;63169;46.042;14.592;2023-05-10T06:09:25;9.77;;;5.15;;
74650;SDS011;63169;46.042;14.592;2023-05-10T06:11:51;8.18;;;3.72;;
74650;SDS011;63169;46.042;14.592;2023-05-10T06:14:16;9.40;;;4.28;;
74650;SDS011;63169;46.042;14.592;2023-05-10T06:16:42;10.40;;;4.05;;
74650;SDS011;63169;46.042;14.592;2023-05-10T06:19:07;7.85;;;4.00;;
74650;SDS011;63169;46.042;14.592;2023-05-10T06:21:32;13.32;;;5.32;;
74650;SDS011;63169;46.042;14.592;2023-05-10T06:23:58;8.20;;;4.18;;
74650;SDS011;63169;46.042;14.592;2023-05-10T06:26:23;13.57;;;4.32;;
74650;SDS011;63169;46.042;14.592;2023-05-10T06:28:48;7.43;;;3.72;;
74650;SDS011;63169;46.042;14.592;2023-05-10T06:31:14;10.38;;;5.50;;
74650;SDS011;63169;46.042;14.592;2023-05-10T06:33:40;9.27;;;4.35;;
74650;SDS011;63169;46.042;14.592;2023-05-10T06:36:05;18.75;;;9.93;;
74650;SDS011;63169;46.042;14.592;2023-05-10T06:38:31;8.93;;;5.43;;
74650;SDS011;63169;46.042;14.592;2023-05-10T06:40:56;9.45;;;4.57;;
74650;SDS011;63169;46.042;14.592;2023-05-10T06:43:22;7.07;;;4.45;;
74650;SDS011;63169;46.042;14.592;2023-05-10T06:45:48;7.93;;;3.70;;
74650;SDS011;63169;46.042;14.592;2023-05-10T06:48:13;8.80;;;4.03;;
74650;SDS011;63169;46.042;14.592;2023-05-10T06:50:38;7.82;;;4.38;;
74650;SDS011;63169;46.042;14.592;2023-05-10T06:53:04;8.02;;;3.95;;
74650;SDS011;63169;46.042;14.592;2023-05-10T06:55:29;8.80;;;3.80;;
74650;SDS011;63169;46.042;14.592;2023-05-10T06:57:55;12.55;;;7.30;;
74650;SDS011;63169;46.042;14.592;2023-05-10T07:00:20;9.70;;;4.47;;
74650;SDS011;63169;46.042;14.592;2023-05-10T07:02:46;12.23;;;4.63;;
74650;SDS011;63169;46.042;14.592;2023-05-10T07:05:12;9.57;;;6.95;;
74650;SDS011;63169;46.042;14.592;2023-05-10T07:07:37;20.02;;;9.18;;
74650;SDS011;63169;46.042;14.592;2023-05-10T07:10:03;9.02;;;3.08;;
74650;SDS011;63169;46.042;14.592;2023-05-10T07:12:29;10.23;;;3.33;;
74650;SDS011;63169;46.042;14.592;2023-05-10T07:14:54;13.75;;;4.38;;
74650;SDS011;63169;46.042;14.592;2023-05-10T07:17:20;10.05;;;4.10;;
74650;SDS011;63169;46.042;14.592;2023-05-10T07:19:45;5.10;;;2.33;;
74650;SDS011;63169;46.042;14.592;2023-05-10T07:22:10;8.15;;;2.83;;
74650;SDS011;63169;46.042;14.592;2023-05-10T07:24:36;5.10;;;3.13;;
74650;SDS011;63169;46.042;14.592;2023-05-10T07:27:02;7.18;;;3.97;;
74650;SDS011;63169;46.042;14.592;2023-05-10T07:29:27;6.88;;;2.67;;
74650;SDS011;63169;46.042;14.592;2023-05-10T07:31:53;8.63;;;2.80;;
74650;SDS011;63169;46.042;14.592;2023-05-10T07:34:18;11.05;;;4.07;;
74650;SDS011;63169;46.042;14.592;2023-05-10T07:36:44;11.95;;;4.65;;
74650;SDS011;63169;46.042;14.592;2023-05-10T07:39:09;12.75;;;3.08;;
74650;SDS011;63169;46.042;14.592;2023-05-10T07:41:35;8.13;;;3.05;;
74650;SDS011;63169;46.042;14.592;2023-05-10T07:44:02;6.50;;;3.70;;
74650;SDS011;63169;46.042;14.592;2023-05-10T07:46:28;10.13;;;4.60;;
74650;SDS011;63169;46.042;14.592;2023-05-10T07:48:53;7.70;;;5.60;;
74650;SDS011;63169;46.042;14.592;2023-05-10T07:51:19;7.45;;;2.97;;
74650;SDS011;63169;46.042;14.592;2023-05-10T07:53:44;9.82;;;4.18;;
74650;SDS011;63169;46.042;14.592;2023-05-10T07:56:20;4.97;;;2.17;;
74650;SDS011;63169;46.042;14.592;2023-05-10T07:58:54;6.93;;;3.35;;
74650;SDS011;63169;46.042;14.592;2023-05-10T08:01:21;10.95;;;2.50;;
74650;SDS011;63169;46.042;14.592;2023-05-10T08:03:46;10.70;;;3.55;;
74650;SDS011;63169;46.042;14.592;2023-05-10T08:06:12;7.65;;;2.55;;
74650;SDS011;63169;46.042;14.592;2023-05-10T08:11:04;11.10;;;4.67;;
74650;SDS011;63169;46.042;14.592;2023-05-10T08:13:29;10.40;;;3.92;;
74650;SDS011;63169;46.042;14.592;2023-05-10T08:15:56;8.25;;;2.70;;
74650;SDS011;63169;46.042;14.592;2023-05-10T08:18:22;6.80;;;2.35;;
74650;SDS011;63169;46.042;14.592;2023-05-10T08:20:47;6.90;;;2.50;;
74650;SDS011;63169;46.042;14.592;2023-05-10T08:23:13;7.55;;;2.88;;
74650;SDS011;63169;46.042;14.592;2023-05-10T08:25:38;8.85;;;4.20;;
74650;SDS011;63169;46.042;14.592;2023-05-10T08:28:04;10.95;;;3.55;;
74650;SDS011;63169;46.042;14.592;2023-05-10T08:30:29;6.60;;;3.20;;
74650;SDS011;63169;46.042;14.592;2023-05-10T08:32:55;11.85;;;4.30;;
74650;SDS011;63169;46.042;14.592;2023-05-10T08:35:20;7.82;;;3.20;;
74650;SDS011;63169;46.042;14.592;2023-05-10T08:37:45;6.55;;;4.18;;
74650;SDS011;63169;46.042;14.592;2023-05-10T08:40:11;5.40;;;2.17;;
74650;SDS011;63169;46.042;14.592;2023-05-10T08:42:36;6.85;;;2.08;;
74650;SDS011;63169;46.042;14.592;2023-05-10T08:45:05;7.97;;;3.25;;
74650;SDS011;63169;46.042;14.592;2023-05-10T08:47:32;5.68;;;2.10;;
74650;SDS011;63169;46.042;14.592;2023-05-10T08:49:59;10.05;;;2.60;;
74650;SDS011;63169;46.042;14.592;2023-05-10T08:52:25;7.95;;;2.85;;
74650;SDS011;63169;46.042;14.592;2023-05-10T08:57:16;7.20;;;2.83;;
74650;SDS011;63169;46.042;14.592;2023-05-10T08:59:42;4.88;;;2.58;;
74650;SDS011;63169;46.042;14.592;2023-05-10T09:02:07;7.20;;;2.83;;
74650;SDS011;63169;46.042;14.592;2023-05-10T09:04:35;12.38;;;4.95;;
74650;SDS011;63169;46.042;14.592;2023-05-10T09:07:00;12.05;;;5.63;;
74650;SDS011;63169;46.042;14.592;2023-05-10T09:09:26;6.97;;;4.65;;
74650;SDS011;63169;46.042;14.592;2023-05-10T09:11:52;4.95;;;2.40;;
74650;SDS011;63169;46.042;14.592;2023-05-10T09:14:18;10.45;;;4.25;;
74650;SDS011;63169;46.042;14.592;2023-05-10T09:16:44;8.38;;;3.55;;
74650;SDS011;63169;46.042;14.592;2023-05-10T09:19:10;8.30;;;2.85;;
74650;SDS011;63169;46.042;14.592;2023-05-10T09:21:36;6.75;;;2.97;;
74650;SDS011;63169;46.042;14.592;2023-05-10T09:24:04;4.93;;;2.78;;
74650;SDS011;63169;46.042;14.592;2023-05-10T09:26:30;4.65;;;1.77;;
74650;SDS011;63169;46.042;14.592;2023-05-10T09:28:57;6.57;;;2.08;;
74650;SDS011;63169;46.042;14.592;2023-05-10T09:31:24;5.60;;;2.15;;
74650;SDS011;63169;46.042;14.592;2023-05-10T09:33:50;7.60;;;2.38;;
74650;SDS011;63169;46.042;14.592;2023-05-10T09:36:16;7.82;;;4.97;;
74650;SDS011;63169;46.042;14.592;2023-05-10T09:38:46;9.60;;;2.83;;
74650;SDS011;63169;46.042;14.592;2023-05-10T09:41:20;5.43;;;3.05;;
74650;SDS011;63169;46.042;14.592;2023-05-10T09:43:47;7.07;;;2.47;;
74650;SDS011;63169;46.042;14.592;2023-05-10T09:46:12;5.93;;;2.90;;
74650;SDS011;63169;46.042;14.592;2023-05-10T09:48:44;6.88;;;4.35;;
74650;SDS011;63169;46.042;14.592;2023-05-10T09:51:18;6.00;;;5.40;;
74650;SDS011;63169;46.042;14.592;2023-05-10T09:53:46;11.13;;;3.42;;
74650;SDS011;63169;46.042;14.592;2023-05-10T09:56:12;8.75;;;3.03;;
74650;SDS011;63169;46.042;14.592;2023-05-10T09:58:37;7.88;;;2.78;;
74650;SDS011;63169;46.042;14.592;2023-05-10T10:01:03;7.40;;;4.55;;
74650;SDS011;63169;46.042;14.592;2023-05-10T10:03:28;7.90;;;3.35;;
74650;SDS011;63169;46.042;14.592;2023-05-10T10:05:54;6.88;;;3.53;;
74650;SDS011;63169;46.042;14.592;2023-05-10T10:08:21;7.65;;;3.33;;
74650;SDS011;63169;46.042;14.592;2023-05-10T10:10:46;6.68;;;3.13;;
74650;SDS011;63169;46.042;14.592;2023-05-10T10:13:12;7.60;;;3.05;;
74650;SDS011;63169;46.042;14.592;2023-05-10T10:15:37;6.43;;;2.80;;
74650;SDS011;63169;46.042;14.592;2023-05-10T10:18:03;5.68;;;3.78;;
74650;SDS011;63169;46.042;14.592;2023-05-10T10:20:30;7.32;;;5.13;;
74650;SDS011;63169;46.042;14.592;2023-05-10T10:22:56;5.75;;;3.20;;
74650;SDS011;63169;46.042;14.592;2023-05-10T10:25:21;7.18;;;3.15;;
74650;SDS011;63169;46.042;14.592;2023-05-10T10:27:49;8.57;;;4.13;;
74650;SDS011;63169;46.042;14.592;2023-05-10T10:35:21;6.28;;;3.50;;
74650;SDS011;63169;46.042;14.592;2023-05-10T10:37:47;7.10;;;5.50;;
74650;SDS011;63169;46.042;14.592;2023-05-10T10:40:29;7.65;;;3.72;;
74650;SDS011;63169;46.042;14.592;2023-05-10T10:42:55;8.48;;;4.13;;
74650;SDS011;63169;46.042;14.592;2023-05-10T10:45:21;7.93;;;4.20;;
74650;SDS011;63169;46.042;14.592;2023-05-10T10:47:48;8.18;;;4.40;;
74650;SDS011;63169;46.042;14.592;2023-05-10T10:50:14;7.72;;;4.28;;
74650;SDS011;63169;46.042;14.592;2023-05-10T10:52:43;6.68;;;3.63;;
74650;SDS011;63169;46.042;14.592;2023-05-10T10:57:51;9.60;;;8.55;;
74650;SDS011;63169;46.042;14.592;2023-05-10T11:00:26;8.00;;;3.88;;
74650;SDS011;63169;46.042;14.592;2023-05-10T11:02:57;7.10;;;3.22;;
74650;SDS011;63169;46.042;14.592;2023-05-10T11:08:13;6.43;;;3.42;;
74650;SDS011;63169;46.042;14.592;2023-05-10T11:13:27;9.57;;;4.88;;
74650;SDS011;63169;46.042;14.592;2023-05-10T11:15:54;8.35;;;5.07;;
74650;SDS011;63169;46.042;14.592;2023-05-10T11:18:23;8.52;;;4.10;;
74650;SDS011;63169;46.042;14.592;2023-05-10T11:20:55;8.38;;;4.88;;
74650;SDS011;63169;46.042;14.592;2023-05-10T11:23:23;6.70;;;3.90;;
74650;SDS011;63169;46.042;14.592;2023-05-10T11:25:49;14.52;;;10.15;;
74650;SDS011;63169;46.042;14.592;2023-05-10T11:28:16;9.73;;;4.60;;
74650;SDS011;63169;46.042;14.592;2023-05-10T11:30:43;9.00;;;4.03;;
74650;SDS011;63169;46.042;14.592;2023-05-10T11:35:39;7.93;;;4.35;;
74650;SDS011;63169;46.042;14.592;2023-05-10T11:38:09;7.22;;;4.55;;
74650;SDS011;63169;46.042;14.592;2023-05-10T11:40:36;9.10;;;3.97;;
74650;SDS011;63169;46.042;14.592;2023-05-10T11:43:01;7.28;;;4.20;;
74650;SDS011;63169;46.042;14.592;2023-05-10T11:45:27;11.52;;;5.70;;
74650;SDS011;63169;46.042;14.592;2023-05-10T11:47:54;8.57;;;5.15;;
74650;SDS011;63169;46.042;14.592;2023-05-10T11:50:23;7.43;;;4.85;;
74650;SDS011;63169;46.042;14.592;2023-05-10T11:52:52;8.45;;;4.82;;
74650;SDS011;63169;46.042;14.592;2023-05-10T11:55:17;9.60;;;5.43;;
74650;SDS011;63169;46.042;14.592;2023-05-10T11:57:43;8.63;;;4.53;;
74650;SDS011;63169;46.042;14.592;2023-05-10T12:00:11;7.90;;;4.47;;
74650;SDS011;63169;46.042;14.592;2023-05-10T12:05:02;8.80;;;4.90;;
74650;SDS011;63169;46.042;14.592;2023-05-10T12:07:30;9.43;;;5.43;;
74650;SDS011;63169;46.042;14.592;2023-05-10T12:10:08;8.30;;;4.93;;
74650;SDS011;63169;46.042;14.592;2023-05-10T12:12:44;7.95;;;4.43;;
74650;SDS011;63169;46.042;14.592;2023-05-10T12:15:20;7.68;;;4.65;;
74650;SDS011;63169;46.042;14.592;2023-05-10T12:20:15;10.68;;;5.68;;
74650;SDS011;63169;46.042;14.592;2023-05-10T12:25:16;6.78;;;4.78;;
74650;SDS011;63169;46.042;14.592;2023-05-10T12:27:52;8.00;;;4.75;;
74650;SDS011;63169;46.042;14.592;2023-05-10T12:30:26;8.30;;;4.63;;
74650;SDS011;63169;46.042;14.592;2023-05-10T12:32:52;10.77;;;5.53;;
74650;SDS011;63169;46.042;14.592;2023-05-10T12:35:18;9.38;;;5.50;;
74650;SDS011;63169;46.042;14.592;2023-05-10T12:37:48;9.80;;;5.00;;
74650;SDS011;63169;46.042;14.592;2023-05-10T12:40:15;10.25;;;5.47;;
74650;SDS011;63169;46.042;14.592;2023-05-10T12:42:40;12.18;;;5.32;;
74650;SDS011;63169;46.042;14.592;2023-05-10T12:45:07;9.20;;;6.03;;
74650;SDS011;63169;46.042;14.592;2023-05-10T12:47:33;8.82;;;5.40;;
74650;SDS011;63169;46.042;14.592;2023-05-10T12:49:59;9.25;;;5.13;;
74650;SDS011;63169;46.042;14.592;2023-05-10T12:52:26;9.68;;;6.35;;
74650;SDS011;63169;46.042;14.592;2023-05-10T12:54:52;16.23;;;10.50;;
74650;SDS011;63169;46.042;14.592;2023-05-10T12:57:18;12.13;;;6.75;;
74650;SDS011;63169;46.042;14.592;2023-05-10T12:59:43;10.32;;;6.32;;
74650;SDS011;63169;46.042;14.592;2023-05-10T13:02:09;13.50;;;7.85;;
74650;SDS011;63169;46.042;14.592;2023-05-10T13:04:34;10.77;;;6.00;;
74650;SDS011;63169;46.042;14.592;2023-05-10T13:07:02;13.48;;;6.57;;
74650;SDS011;63169;46.042;14.592;2023-05-10T13:09:27;11.88;;;7.45;;
74650;SDS011;63169;46.042;14.592;2023-05-10T13:11:55;13.55;;;7.45;;
74650;SDS011;63169;46.042;14.592;2023-05-10T13:14:21;12.20;;;6.90;;
74650;SDS011;63169;46.042;14.592;2023-05-10T13:16:46;12.13;;;8.07;;
74650;SDS011;63169;46.042;14.592;2023-05-10T13:19:12;11.30;;;7.88;;
74650;SDS011;63169;46.042;14.592;2023-05-10T13:21:41;15.77;;;10.20;;
74650;SDS011;63169;46.042;14.592;2023-05-10T13:24:06;14.52;;;9.60;;
74650;SDS011;63169;46.042;14.592;2023-05-10T13:26:32;23.17;;;13.80;;
74650;SDS011;63169;46.042;14.592;2023-05-10T13:28:58;20.63;;;13.18;;
74650;SDS011;63169;46.042;14.592;2023-05-10T13:31:23;16.17;;;12.07;;
74650;SDS011;63169;46.042;14.592;2023-05-10T13:33:49;13.65;;;8.00;;
74650;SDS011;63169;46.042;14.592;2023-05-10T13:36:14;19.85;;;9.98;;
74650;SDS011;63169;46.042;14.592;2023-05-10T13:38:39;17.45;;;10.32;;
74650;SDS011;63169;46.042;14.592;2023-05-10T13:41:05;26.20;;;18.35;;
74650;SDS011;63169;46.042;14.592;2023-05-10T13:43:30;30.67;;;22.30;;
74650;SDS011;63169;46.042;14.592;2023-05-10T13:45:55;21.52;;;15.68;;
74650;SDS011;63169;46.042;14.592;2023-05-10T13:48:21;20.60;;;13.20;;
74650;SDS011;63169;46.042;14.592;2023-05-10T13:50:46;17.23;;;11.65;;
74650;SDS011;63169;46.042;14.592;2023-05-10T13:53:12;17.20;;;11.00;;
74650;SDS011;63169;46.042;14.592;2023-05-10T13:55:37;16.02;;;10.18;;
74650;SDS011;63169;46.042;14.592;2023-05-10T13:58:03;15.23;;;9.57;;
74650;SDS011;63169;46.042;14.592;2023-05-10T14:00:28;13.15;;;8.98;;
74650;SDS011;63169;46.042;14.592;2023-05-10T14:02:53;20.42;;;13.10;;
74650;SDS011;63169;46.042;14.592;2023-05-10T14:05:19;13.23;;;8.68;;
74650;SDS011;63169;46.042;14.592;2023-05-10T14:07:45;13.82;;;8.00;;
74650;SDS011;63169;46.042;14.592;2023-05-10T14:10:10;14.60;;;9.82;;
74650;SDS011;63169;46.042;14.592;2023-05-10T14:12:35;15.80;;;8.57;;
74650;SDS011;63169;46.042;14.592;2023-05-10T14:15:01;14.38;;;7.95;;
74650;SDS011;63169;46.042;14.592;2023-05-10T14:17:27;14.02;;;7.30;;
74650;SDS011;63169;46.042;14.592;2023-05-10T14:19:52;14.10;;;7.90;;
74650;SDS011;63169;46.042;14.592;2023-05-10T14:22:18;14.05;;;7.78;;
74650;SDS011;63169;46.042;14.592;2023-05-10T14:24:43;14.68;;;8.52;;
74650;SDS011;63169;46.042;14.592;2023-05-10T14:27:11;13.15;;;9.38;;
74650;SDS011;63169;46.042;14.592;2023-05-10T14:29:37;12.38;;;8.60;;
74650;SDS011;63169;46.042;14.592;2023-05-10T14:32:02;11.68;;;7.63;;
74650;SDS011;63169;46.042;14.592;2023-05-10T14:34:28;13.13;;;9.05;;
74650;SDS011;63169;46.042;14.592;2023-05-10T14:36:53;12.00;;;8.20;;
74650;SDS011;63169;46.042;14.592;2023-05-10T14:39:19;14.45;;;8.93;;
74650;SDS011;63169;46.042;14.592;2023-05-10T14:41:44;14.63;;;9.13;;
74650;SDS011;63169;46.042;14.592;2023-05-10T14:44:10;15.90;;;9.55;;
74650;SDS011;63169;46.042;14.592;2023-05-10T14:46:36;15.15;;;9.27;;
74650;SDS011;63169;46.042;14.592;2023-05-10T14:49:01;17.08;;;11.13;;
74650;SDS011;63169;46.042;14.592;2023-05-10T14:51:27;16.15;;;10.23;;
74650;SDS011;63169;46.042;14.592;2023-05-10T14:53:52;14.30;;;9.45;;
74650;SDS011;63169;46.042;14.592;2023-05-10T14:56:17;17.60;;;9.68;;
74650;SDS011;63169;46.042;14.592;2023-05-10T14:58:43;14.50;;;9.93;;
74650;SDS011;63169;46.042;14.592;2023-05-10T15:01:08;15.52;;;8.38;;
74650;SDS011;63169;46.042;14.592;2023-05-10T15:03:33;12.68;;;9.02;;
74650;SDS011;63169;46.042;14.592;2023-05-10T15:05:59;15.93;;;12.13;;
74650;SDS011;63169;46.042;14.592;2023-05-10T15:08:24;16.52;;;11.15;;
74650;SDS011;63169;46.042;14.592;2023-05-10T15:10:50;14.27;;;9.27;;
74650;SDS011;63169;46.042;14.592;2023-05-10T15:13:16;15.38;;;9.43;;
74650;SDS011;63169;46.042;14.592;2023-05-10T15:15:41;14.75;;;9.82;;
74650;SDS011;63169;46.042;14.592;2023-05-10T15:18:08;14.40;;;8.90;;